createdAt,value
2019-01-31T00:01:11.461Z,14.10
2019-01-31T00:04:19.740Z,13.97
2019-01-31T00:07:29.296Z,14.87
2019-01-31T00:10:38.892Z,11.70
2019-01-31T00:13:47.146Z,15.40
2019-01-31T00:16:55.312Z,12.50
2019-01-31T00:20:04.254Z,13.90
2019-01-31T00:23:12.428Z,14.97
2019-01-31T00:25:56.579Z,14.03
2019-01-31T00:29:04.839Z,14.97
2019-01-31T00:32:38.603Z,14.40
2019-01-31T00:35:46.791Z,12.87
2019-01-31T00:38:56.854Z,12.70
2019-01-31T00:42:24.458Z,14.57
2019-01-31T00:45:34.032Z,11.80
2019-01-31T00:48:42.191Z,12.40
2019-01-31T00:51:50.367Z,10.43
2019-01-31T00:54:58.527Z,12.90
2019-01-31T00:58:08.183Z,13.37
2019-01-31T01:01:18.034Z,10.83
2019-01-31T01:04:26.254Z,12.67
2019-01-31T01:07:35.939Z,16.40
2019-01-31T01:10:44.215Z,12.63
2019-01-31T01:13:52.491Z,12.83
2019-01-31T01:17:00.749Z,10.60
2019-01-31T01:20:10.534Z,13.77
2019-01-31T01:23:18.735Z,13.33
2019-01-31T01:26:27.526Z,11.33
2019-01-31T01:29:37.087Z,15.07
2019-01-31T02:25:25.094Z,8.97
2019-01-31T02:28:11.595Z,10.67
2019-01-31T02:31:43.974Z,10.40
2019-01-31T02:34:52.207Z,9.47
2019-01-31T02:38:00.476Z,6.73
2019-01-31T02:41:08.696Z,8.50
2019-01-31T02:44:16.864Z,10.17
2019-01-31T02:47:25.060Z,7.03
2019-01-31T02:50:33.220Z,9.43
2019-01-31T02:53:41.412Z,9.90
2019-01-31T02:56:52.335Z,9.20
2019-01-31T03:00:00.547Z,9.63
2019-01-31T03:03:31.927Z,11.13
2019-01-31T03:06:40.091Z,8.53
2019-01-31T03:09:28.199Z,8.37
2019-01-31T03:12:45.063Z,7.47
2019-01-31T03:15:51.684Z,6.73
2019-01-31T03:18:59.871Z,8.60
2019-01-31T03:26:12.129Z,6.80
2019-01-31T03:29:20.325Z,7.73
2019-01-31T03:32:28.484Z,7.63
2019-01-31T03:35:38.139Z,7.80
2019-01-31T03:38:46.326Z,7.37
2019-01-31T03:41:54.488Z,7.23
2019-01-31T03:45:04.168Z,6.37
2019-01-31T03:48:12.322Z,6.17
2019-01-31T03:51:21.929Z,7.40
2019-01-31T03:54:50.946Z,5.80
2019-01-31T03:58:24.325Z,5.93
2019-01-31T04:01:34.088Z,5.30
2019-01-31T04:04:42.360Z,5.10
2019-01-31T04:07:31.361Z,6.27
2019-01-31T04:10:20.221Z,5.30
2019-01-31T04:13:09.217Z,6.13
2019-01-31T04:15:58.162Z,5.90
2019-01-31T04:18:47.024Z,5.23
2019-01-31T04:21:35.987Z,5.60
2019-01-31T04:24:24.847Z,5.40
2019-01-31T04:27:08.865Z,6.57
2019-01-31T04:29:57.951Z,5.33
2019-01-31T04:32:47.316Z,6.80
2019-01-31T04:35:36.229Z,5.60
2019-01-31T04:38:25.154Z,6.37
2019-01-31T04:41:13.990Z,4.30
2019-01-31T04:44:02.859Z,5.90
2019-01-31T04:46:52.215Z,4.50
2019-01-31T04:53:25.814Z,5.57
2019-01-31T04:56:14.667Z,6.00
2019-01-31T04:59:03.683Z,6.00
2019-01-31T05:01:52.614Z,6.10
2019-01-31T05:04:43.206Z,6.63
2019-01-31T05:07:32.268Z,5.90
2019-01-31T05:11:24.453Z,5.00
2019-01-31T05:14:13.338Z,6.20
2019-01-31T05:17:22.081Z,4.13
2019-01-31T05:20:33.278Z,6.07
2019-01-31T05:23:41.574Z,5.97
2019-01-31T05:26:23.731Z,5.07
2019-01-31T05:29:12.612Z,6.13
2019-01-31T05:33:04.564Z,6.20
2019-01-31T05:38:44.258Z,5.07
2019-01-31T05:41:33.117Z,5.87
2019-01-31T05:44:23.627Z,4.93
2019-01-31T05:47:12.551Z,4.10
2019-01-31T05:53:31.506Z,5.80
2019-01-31T05:56:39.842Z,4.57
2019-01-31T05:59:09.648Z,6.10
2019-01-31T06:01:39.398Z,5.23
2019-01-31T06:04:08.995Z,3.53
2019-01-31T06:06:38.564Z,4.80
2019-01-31T06:09:08.397Z,5.00
2019-01-31T06:11:38.170Z,3.43
2019-01-31T06:14:07.741Z,4.60
2019-01-31T06:16:40.126Z,5.00
2019-01-31T06:19:09.953Z,4.17
2019-01-31T06:21:39.548Z,5.37
2019-01-31T06:24:09.165Z,4.53
2019-01-31T06:26:39.481Z,6.37
2019-01-31T06:29:08.965Z,7.17
2019-01-31T06:31:38.686Z,5.20
2019-01-31T06:34:08.382Z,6.40
2019-01-31T06:36:37.967Z,4.30
2019-01-31T06:39:08.421Z,6.00
2019-01-31T06:41:38.243Z,5.90
2019-01-31T06:44:07.850Z,6.70
2019-01-31T06:46:37.502Z,5.30
2019-01-31T06:49:07.071Z,6.27
2019-01-31T06:51:36.681Z,6.67
2019-01-31T06:54:07.759Z,5.20
2019-01-31T06:56:37.409Z,5.27
2019-01-31T06:59:07.182Z,8.37
2019-01-31T07:01:36.776Z,6.13
2019-01-31T07:04:06.513Z,6.70
2019-01-31T07:06:36.234Z,6.33
2019-01-31T07:09:08.258Z,6.27
2019-01-31T07:11:37.838Z,5.40
2019-01-31T07:14:07.426Z,5.10
2019-01-31T07:16:36.992Z,5.57
2019-01-31T07:19:06.655Z,6.20
2019-01-31T07:21:36.207Z,5.63
2019-01-31T07:24:06.074Z,5.90
2019-01-31T07:26:35.578Z,6.63
2019-01-31T07:29:05.520Z,6.27
2019-01-31T07:31:35.595Z,5.90
2019-01-31T07:34:05.293Z,6.03
2019-01-31T07:36:35.057Z,5.03
2019-01-31T07:39:07.161Z,6.50
2019-01-31T07:41:41.430Z,5.57
2019-01-31T07:44:08.667Z,6.40
2019-01-31T07:46:38.280Z,6.67
2019-01-31T07:49:07.871Z,8.90
2019-01-31T07:51:37.643Z,5.80
2019-01-31T07:54:07.307Z,6.67
2019-01-31T07:56:36.886Z,5.73
2019-01-31T07:59:06.790Z,6.60
2019-01-31T08:01:36.422Z,5.70
2019-01-31T08:04:06.169Z,5.80
2019-01-31T08:06:36.155Z,5.47
2019-01-31T08:09:07.566Z,5.30
2019-01-31T08:11:37.226Z,5.10
2019-01-31T08:14:06.990Z,4.97
2019-01-31T08:16:36.591Z,6.90
2019-01-31T08:19:06.241Z,6.57
2019-01-31T08:21:36.317Z,6.00
2019-01-31T08:24:06.114Z,5.40
2019-01-31T08:26:35.741Z,8.00
2019-01-31T08:29:05.392Z,6.93
2019-01-31T08:31:34.982Z,8.13
2019-01-31T08:34:04.770Z,8.80
2019-01-31T08:36:34.367Z,7.20
2019-01-31T08:39:05.653Z,7.13
2019-01-31T08:41:35.304Z,9.17
2019-01-31T08:44:05.048Z,8.37
2019-01-31T08:46:35.181Z,7.30
2019-01-31T08:49:05.241Z,6.80
2019-01-31T08:51:34.867Z,8.47
2019-01-31T08:54:04.666Z,9.33
2019-01-31T08:56:34.531Z,8.00
2019-01-31T08:59:04.248Z,7.73
2019-01-31T09:01:34.284Z,8.27
2019-01-31T09:04:04.243Z,8.20
2019-01-31T09:06:34.322Z,7.07
2019-01-31T09:09:07.517Z,8.53
2019-01-31T09:11:37.264Z,8.50
2019-01-31T09:14:06.923Z,9.10
2019-01-31T09:16:36.520Z,8.53
2019-01-31T09:19:06.222Z,10.67
2019-01-31T09:21:38.152Z,8.47
2019-01-31T09:27:00.528Z,6.90
2019-01-31T09:29:35.755Z,6.57
2019-01-31T09:32:20.127Z,9.00
2019-01-31T09:34:55.567Z,7.63
2019-01-31T09:37:36.738Z,8.00
2019-01-31T09:40:26.937Z,7.43
2019-01-31T09:43:05.398Z,9.03
2019-01-31T09:45:40.521Z,7.50
2019-01-31T09:48:18.827Z,8.87
2019-01-31T09:51:00.340Z,7.17
2019-01-31T09:53:35.675Z,6.23
2019-01-31T09:56:28.821Z,6.47
2019-01-31T09:59:10.282Z,7.80
2019-01-31T10:01:52.660Z,9.17
2019-01-31T10:04:45.648Z,7.60
2019-01-31T10:07:33.149Z,9.47
2019-01-31T10:10:08.332Z,9.67
2019-01-31T10:12:47.100Z,8.20
2019-01-31T10:15:23.108Z,7.60
2019-01-31T10:18:12.042Z,10.33
2019-01-31T10:20:59.608Z,10.10
2019-01-31T10:23:48.904Z,11.03
2019-01-31T10:26:38.447Z,9.80
2019-01-31T10:29:35.042Z,11.63
2019-01-31T10:32:31.217Z,9.30
2019-01-31T10:35:15.752Z,9.60
2019-01-31T10:38:06.181Z,7.57
2019-01-31T10:40:55.326Z,9.50
2019-01-31T10:43:30.770Z,7.00
2019-01-31T10:46:09.103Z,8.30
2019-01-31T10:48:41.694Z,10.20
2019-01-31T10:51:38.723Z,9.83
2019-01-31T10:54:23.283Z,8.90
2019-01-31T10:57:16.306Z,9.83
2019-01-31T10:59:54.451Z,9.17
2019-01-31T11:02:43.403Z,9.67
2019-01-31T11:05:41.274Z,10.30
2019-01-31T11:08:28.957Z,8.70
2019-01-31T11:11:01.630Z,8.07
2019-01-31T11:13:42.802Z,10.50
2019-01-31T11:16:31.874Z,7.20
2019-01-31T11:19:23.843Z,7.83
2019-01-31T11:22:11.006Z,9.17
2019-01-31T11:24:58.746Z,7.27
2019-01-31T11:27:57.212Z,6.23
2019-01-31T11:30:39.343Z,8.20
2019-01-31T11:33:23.274Z,7.23
2019-01-31T11:36:15.080Z,8.00
2019-01-31T11:39:00.140Z,7.97
2019-01-31T11:41:49.356Z,9.73
2019-01-31T11:44:21.973Z,10.63
2019-01-31T11:46:57.763Z,10.07
2019-01-31T11:49:49.837Z,8.27
2019-01-31T11:52:36.630Z,9.00
2019-01-31T11:55:09.342Z,8.80
2019-01-31T11:57:47.784Z,8.40
2019-01-31T12:00:20.692Z,9.33
2019-01-31T12:02:55.307Z,8.80
2019-01-31T12:05:25.187Z,9.70
2019-01-31T12:07:55.667Z,9.60
2019-01-31T12:10:26.024Z,8.67
2019-01-31T12:12:55.775Z,9.73
2019-01-31T12:15:25.467Z,7.77
2019-01-31T12:17:55.617Z,9.77
2019-01-31T12:20:25.606Z,9.87
2019-01-31T12:22:55.428Z,9.10
2019-01-31T12:25:25.170Z,8.57
2019-01-31T12:27:54.827Z,10.27
2019-01-31T12:30:26.918Z,9.60
2019-01-31T12:32:56.727Z,10.50
2019-01-31T12:35:26.622Z,8.50
2019-01-31T12:37:56.319Z,9.37
2019-01-31T12:40:26.296Z,9.97
2019-01-31T12:42:56.252Z,10.20
2019-01-31T12:45:26.199Z,10.00
2019-01-31T12:47:56.091Z,8.67
2019-01-31T12:50:25.897Z,10.27
2019-01-31T12:52:55.799Z,11.43
2019-01-31T12:55:26.071Z,11.73
2019-01-31T12:57:57.509Z,8.70
2019-01-31T13:00:28.517Z,9.03
2019-01-31T13:02:58.870Z,9.10
2019-01-31T13:05:30.053Z,8.20
2019-01-31T13:08:01.216Z,7.73
2019-01-31T13:10:31.370Z,8.77
2019-01-31T13:13:01.447Z,7.50
2019-01-31T13:15:31.228Z,8.13
2019-01-31T13:18:01.355Z,7.47
2019-01-31T13:20:31.101Z,8.60
2019-01-31T13:23:01.403Z,8.30
2019-01-31T13:25:31.399Z,8.70
2019-01-31T13:28:01.199Z,9.00
2019-01-31T13:30:30.970Z,9.67
2019-01-31T13:33:00.838Z,9.57
2019-01-31T13:35:30.546Z,8.23
2019-01-31T13:38:02.297Z,9.77
2019-01-31T13:40:32.283Z,10.17
2019-01-31T13:43:02.045Z,12.53
2019-01-31T13:45:33.966Z,9.93
2019-01-31T13:48:06.610Z,10.17
2019-01-31T13:50:36.841Z,9.50
2019-01-31T13:53:07.543Z,9.13
2019-01-31T13:55:37.346Z,10.67
2019-01-31T13:58:09.976Z,11.33
2019-01-31T14:00:39.111Z,10.87
2019-01-31T14:03:11.651Z,10.73
2019-01-31T14:05:41.499Z,9.50
2019-01-31T14:08:11.919Z,11.03
2019-01-31T14:10:42.239Z,11.20
2019-01-31T14:13:11.874Z,13.40
2019-01-31T14:15:41.725Z,12.07
2019-01-31T14:18:11.385Z,10.90
2019-01-31T14:20:42.027Z,12.03
2019-01-31T14:23:11.895Z,11.50
2019-01-31T14:25:41.668Z,11.23
2019-01-31T14:28:11.395Z,9.87
2019-01-31T14:30:41.199Z,12.20
2019-01-31T14:33:12.975Z,11.93
2019-01-31T14:35:42.759Z,12.50
2019-01-31T14:38:12.418Z,12.00
2019-01-31T14:40:42.174Z,13.70
2019-01-31T14:43:11.956Z,10.20
2019-01-31T14:45:42.000Z,12.17
2019-01-31T14:48:11.637Z,13.00
2019-01-31T14:50:41.231Z,12.90
2019-01-31T14:53:10.849Z,11.83
2019-01-31T14:55:40.438Z,10.47
2019-01-31T14:58:10.615Z,11.33
2019-01-31T15:00:40.692Z,12.53
2019-01-31T15:03:10.439Z,13.83
2019-01-31T15:05:40.080Z,15.33
2019-01-31T15:08:09.826Z,14.07
2019-01-31T15:10:39.583Z,12.87
2019-01-31T15:13:09.214Z,13.73
2019-01-31T15:15:40.905Z,11.60
2019-01-31T15:18:10.715Z,11.07
2019-01-31T15:20:42.160Z,12.33
2019-01-31T15:23:12.283Z,12.70
2019-01-31T15:25:42.293Z,12.30
2019-01-31T15:28:13.289Z,11.20
2019-01-31T15:30:43.059Z,12.87
2019-01-31T15:33:14.028Z,11.77
2019-01-31T15:35:44.215Z,12.10
2019-01-31T15:38:14.490Z,13.23
2019-01-31T15:40:48.740Z,14.17
2019-01-31T15:43:18.307Z,13.70
2019-01-31T15:45:48.464Z,11.90
2019-01-31T15:48:18.799Z,13.27
2019-01-31T15:50:48.952Z,13.93
2019-01-31T15:53:22.022Z,15.63
2019-01-31T15:55:50.806Z,13.03
2019-01-31T15:58:20.923Z,15.50
2019-01-31T16:00:51.135Z,15.47
2019-01-31T16:03:21.435Z,14.03
2019-01-31T16:05:51.201Z,15.60
2019-01-31T16:08:20.925Z,16.53
2019-01-31T16:10:51.187Z,17.67
2019-01-31T16:13:21.280Z,16.07
2019-01-31T16:15:51.403Z,14.63
2019-01-31T16:18:21.046Z,15.50
2019-01-31T16:20:51.991Z,19.73
2019-01-31T16:23:22.332Z,15.67
2019-01-31T16:25:52.243Z,15.33
2019-01-31T16:28:21.981Z,15.30
2019-01-31T16:30:51.636Z,15.17
2019-01-31T16:33:21.515Z,16.10
2019-01-31T16:35:53.704Z,18.03
2019-01-31T16:38:24.094Z,18.47
2019-01-31T16:40:53.949Z,16.50
2019-01-31T16:43:24.059Z,15.40
2019-01-31T16:45:54.309Z,16.37
2019-01-31T16:48:24.092Z,15.10
2019-01-31T16:50:53.723Z,14.27
2019-01-31T16:53:23.414Z,14.17
2019-01-31T16:55:55.036Z,15.20
2019-01-31T16:58:26.864Z,14.57
2019-01-31T17:01:07.874Z,17.00
2019-01-31T17:03:46.334Z,15.87
2019-01-31T17:06:19.446Z,15.40
2019-01-31T17:08:52.710Z,16.53
2019-01-31T17:11:25.123Z,15.40
2019-01-31T17:13:58.866Z,16.10
2019-01-31T17:16:37.765Z,18.90
2019-01-31T17:19:14.861Z,15.13
2019-01-31T17:21:48.504Z,14.67
2019-01-31T17:24:22.964Z,15.30
2019-01-31T17:26:53.506Z,14.40
2019-01-31T17:29:27.211Z,13.93
2019-01-31T17:31:57.551Z,15.77
2019-01-31T17:34:31.160Z,14.97
2019-01-31T17:37:01.569Z,13.00
2019-01-31T17:39:37.269Z,13.00
2019-01-31T17:42:23.035Z,16.97
2019-01-31T17:45:30.441Z,13.43
2019-01-31T17:48:13.198Z,15.67
2019-01-31T17:50:46.802Z,13.73
2019-01-31T17:53:27.782Z,13.53
2019-01-31T17:56:00.402Z,12.30
2019-01-31T17:58:37.596Z,12.20
2019-01-31T18:01:16.050Z,14.10
2019-01-31T18:03:47.864Z,13.20
2019-01-31T18:06:27.911Z,11.17
2019-01-31T18:08:59.928Z,12.73
2019-01-31T18:11:35.038Z,12.40
2019-01-31T18:14:11.216Z,12.60
2019-01-31T18:16:43.855Z,16.73
2019-01-31T18:19:15.814Z,14.93
2019-01-31T18:21:57.347Z,16.20
2019-01-31T18:24:33.466Z,16.00
2019-01-31T18:27:06.434Z,13.70
2019-01-31T18:29:38.622Z,11.17
2019-01-31T18:32:17.686Z,11.37
2019-01-31T18:34:50.119Z,11.10
2019-01-31T18:37:26.569Z,10.83
2019-01-31T18:39:59.798Z,10.17
2019-01-31T18:42:41.184Z,10.68
2019-01-31T18:45:12.978Z,10.48
2019-01-31T18:48:00.723Z,11.03
2019-01-31T18:50:52.227Z,11.53
2019-01-31T18:53:27.506Z,9.83
2019-01-31T18:56:20.461Z,11.47
2019-01-31T18:58:55.917Z,10.47
2019-01-31T19:01:30.178Z,8.97
2019-01-31T19:04:04.128Z,9.27
2019-01-31T19:06:38.118Z,10.83
2019-01-31T19:09:17.956Z,9.90
2019-01-31T19:11:53.164Z,9.03
2019-01-31T19:14:27.891Z,9.50
2019-01-31T19:16:58.306Z,9.67
2019-01-31T19:19:30.001Z,9.10
2019-01-31T19:22:02.094Z,7.77
2019-01-31T19:24:35.030Z,9.23
2019-01-31T19:27:09.309Z,8.10
2019-01-31T19:29:41.225Z,8.20
2019-01-31T19:32:11.708Z,8.90
2019-01-31T19:34:44.913Z,7.53
2019-01-31T19:37:21.893Z,8.67
2019-01-31T19:39:53.073Z,8.13
2019-01-31T19:42:29.374Z,8.40
2019-01-31T19:45:09.143Z,7.43
2019-01-31T19:47:41.404Z,7.57
2019-01-31T19:50:13.488Z,8.90
2019-01-31T19:52:51.316Z,8.33
2019-01-31T19:55:25.589Z,8.10
2019-01-31T19:57:57.973Z,9.57
2019-01-31T20:00:30.791Z,9.40
2019-01-31T20:03:03.316Z,8.90
2019-01-31T20:05:33.531Z,9.73
2019-01-31T20:08:07.176Z,12.23
2019-01-31T20:10:40.347Z,9.60
2019-01-31T20:13:18.158Z,9.27
2019-01-31T20:15:52.486Z,10.10
2019-01-31T20:18:32.862Z,11.27
2019-01-31T20:21:12.138Z,9.97
2019-01-31T20:23:48.580Z,9.50
2019-01-31T20:26:27.315Z,10.83
2019-01-31T20:29:02.087Z,11.10
2019-01-31T20:31:44.461Z,9.03
2019-01-31T20:34:17.052Z,9.23
2019-01-31T20:36:48.668Z,8.77
2019-01-31T20:39:21.011Z,8.50
2019-01-31T20:41:54.311Z,7.40
2019-01-31T20:44:25.380Z,9.70
2019-01-31T20:47:01.995Z,9.87
2019-01-31T20:49:42.842Z,9.20
2019-01-31T20:52:15.529Z,10.47
2019-01-31T20:55:02.845Z,9.30
2019-01-31T20:57:44.935Z,7.47
2019-01-31T21:00:25.754Z,9.40
2019-01-31T21:02:58.959Z,11.10
2019-01-31T21:05:31.875Z,9.33
2019-01-31T21:08:04.089Z,8.77
2019-01-31T21:10:38.023Z,8.63
2019-01-31T21:13:10.452Z,10.20
2019-01-31T21:15:43.498Z,9.37
2019-01-31T21:18:18.868Z,9.50
2019-01-31T21:20:53.096Z,9.77
2019-01-31T21:23:22.794Z,10.17
2019-01-31T21:25:52.395Z,9.37
2019-01-31T21:28:22.119Z,7.40
2019-01-31T21:30:52.027Z,9.47
2019-01-31T21:33:21.993Z,11.77
2019-01-31T21:35:52.004Z,9.67
2019-01-31T21:38:21.790Z,8.33
2019-01-31T21:40:51.495Z,8.20
2019-01-31T21:43:21.188Z,8.00
2019-01-31T21:45:50.788Z,10.17
2019-01-31T21:48:20.370Z,8.90
2019-01-31T21:50:50.103Z,7.67
2019-01-31T21:53:19.839Z,9.07
2019-01-31T21:55:49.540Z,8.47
2019-01-31T21:58:19.311Z,7.47
2019-01-31T22:00:49.251Z,9.33
2019-01-31T22:03:19.145Z,6.70
2019-01-31T22:05:48.795Z,7.40
2019-01-31T22:08:22.530Z,6.17
2019-01-31T22:10:52.187Z,7.30
2019-01-31T22:13:21.758Z,7.80
2019-01-31T22:15:51.720Z,6.40
2019-01-31T22:18:21.382Z,6.80
2019-01-31T22:20:51.128Z,6.43
2019-01-31T22:23:20.776Z,7.00
2019-01-31T22:25:50.466Z,5.73
2019-01-31T22:28:20.032Z,6.43
2019-01-31T22:30:49.614Z,5.80
2019-01-31T22:33:19.239Z,5.50
2019-01-31T22:35:49.707Z,6.83
2019-01-31T22:38:19.427Z,8.00
2019-01-31T22:40:49.075Z,5.20
2019-01-31T22:43:18.754Z,4.73
2019-01-31T22:45:48.454Z,7.60
2019-01-31T22:48:18.056Z,4.00
2019-01-31T22:50:47.636Z,6.20
2019-01-31T22:53:17.152Z,6.07
2019-01-31T22:55:46.842Z,5.23
2019-01-31T22:58:16.520Z,6.13
2019-01-31T23:00:56.804Z,8.70
2019-01-31T23:03:26.505Z,8.90
2019-01-31T23:05:56.273Z,7.10
2019-01-31T23:08:25.926Z,6.17
2019-01-31T23:10:55.774Z,8.53
2019-01-31T23:13:25.384Z,7.80
2019-01-31T23:15:55.101Z,7.70
2019-01-31T23:18:24.606Z,6.57
2019-01-31T23:20:54.249Z,6.40
2019-01-31T23:23:23.843Z,8.00
2019-01-31T23:25:53.661Z,5.90
2019-01-31T23:28:23.302Z,6.87
2019-01-31T23:30:53.007Z,9.07
2019-01-31T23:33:22.634Z,9.27
2019-01-31T23:35:52.250Z,7.10
2019-01-31T23:38:21.891Z,7.70
2019-01-31T23:40:51.640Z,8.10
2019-01-31T23:43:21.284Z,6.57
2019-01-31T23:45:50.839Z,7.00
2019-01-31T23:48:20.459Z,6.90
2019-01-31T23:50:50.119Z,7.17
2019-01-31T23:53:19.639Z,6.83
2019-01-31T23:55:49.227Z,7.90
2019-01-31T23:58:18.750Z,9.27
